createdAt,value
2019-05-15T00:01:41.112Z,65.50
2019-05-15T00:04:09.319Z,65.50
2019-05-15T00:06:39.040Z,65.40
2019-05-15T00:09:08.563Z,65.50
2019-05-15T00:11:39.022Z,65.60
2019-05-15T00:14:08.699Z,65.40
2019-05-15T00:16:38.627Z,65.60
2019-05-15T00:19:08.622Z,65.90
2019-05-15T00:21:38.685Z,66.20
2019-05-15T00:24:12.702Z,66.30
2019-05-15T00:26:38.632Z,66.40
2019-05-15T00:29:12.932Z,66.20
2019-05-15T00:31:38.792Z,66.10
2019-05-15T00:34:12.476Z,66.30
2019-05-15T00:36:38.450Z,66.60
2019-05-15T00:39:08.438Z,66.80
2019-05-15T00:41:50.289Z,66.70
2019-05-15T00:44:09.210Z,66.70
2019-05-15T00:46:38.558Z,66.90
2019-05-15T00:49:08.691Z,66.90
2019-05-15T00:51:38.950Z,66.80
2019-05-15T00:54:08.479Z,66.80
2019-05-15T00:56:39.086Z,66.80
2019-05-15T00:59:08.440Z,66.90
2019-05-15T01:01:38.232Z,67.10
2019-05-15T01:04:08.029Z,67.40
2019-05-15T01:06:38.939Z,67.10
2019-05-15T01:09:08.357Z,67.10
2019-05-15T01:11:38.197Z,67.40
2019-05-15T01:14:11.894Z,67.60
2019-05-15T01:16:38.288Z,67.70
2019-05-15T01:19:09.272Z,68.50
2019-05-15T01:21:38.574Z,68.00
2019-05-15T01:24:08.425Z,68.10
2019-05-15T01:26:38.507Z,68.20
2019-05-15T01:29:09.047Z,68.00
2019-05-15T01:31:38.172Z,68.00
2019-05-15T01:34:08.975Z,68.00
2019-05-15T01:36:38.298Z,68.20
2019-05-15T01:39:08.007Z,68.30
2019-05-15T01:41:38.639Z,68.30
2019-05-15T01:44:08.814Z,68.40
2019-05-15T01:46:39.282Z,68.40
2019-05-15T01:49:08.473Z,68.20
2019-05-15T01:51:38.514Z,68.40
2019-05-15T01:54:09.083Z,67.60
2019-05-15T01:56:38.698Z,68.30
2019-05-15T01:59:08.641Z,68.40
2019-05-15T02:01:39.224Z,68.70
2019-05-15T02:04:08.427Z,68.80
2019-05-15T02:06:39.129Z,68.60
2019-05-15T02:09:08.516Z,69.00
2019-05-15T02:11:38.295Z,69.00
2019-05-15T02:14:08.320Z,68.90
2019-05-15T02:16:39.322Z,68.70
2019-05-15T02:19:09.031Z,69.20
2019-05-15T02:21:38.426Z,69.30
2019-05-15T02:24:07.927Z,69.30
2019-05-15T02:26:38.914Z,69.10
2019-05-15T02:29:10.486Z,69.10
2019-05-15T02:31:41.944Z,68.80
2019-05-15T02:34:11.281Z,69.10
2019-05-15T02:36:40.417Z,68.50
2019-05-15T02:39:09.919Z,68.40
2019-05-15T02:41:39.626Z,68.40
2019-05-15T02:44:10.971Z,68.20
2019-05-15T02:46:39.408Z,68.00
2019-05-15T02:49:08.955Z,68.10
2019-05-15T02:51:39.979Z,68.70
2019-05-15T02:54:10.289Z,70.00
2019-05-15T02:56:39.514Z,69.20
2019-05-15T02:59:09.197Z,69.50
2019-05-15T03:01:40.284Z,69.60
2019-05-15T03:04:09.773Z,70.00
2019-05-15T03:06:39.125Z,70.30
2019-05-15T03:09:09.555Z,70.60
2019-05-15T03:11:41.686Z,70.30
2019-05-15T03:14:10.547Z,70.20
2019-05-15T03:16:39.784Z,70.10
2019-05-15T03:19:09.985Z,70.30
2019-05-15T03:21:39.129Z,70.20
2019-05-15T03:24:10.143Z,70.30
2019-05-15T03:26:39.470Z,70.50
2019-05-15T03:29:09.868Z,70.60
2019-05-15T03:31:52.904Z,70.40
2019-05-15T03:34:20.831Z,70.40
2019-05-15T03:39:39.286Z,70.80
2019-05-15T03:42:29.304Z,70.40
2019-05-15T03:44:59.607Z,70.60
2019-05-15T03:47:30.124Z,70.40
2019-05-15T03:50:00.133Z,70.80
2019-05-15T03:52:29.541Z,71.10
2019-05-15T03:54:58.881Z,71.10
2019-05-15T03:57:30.423Z,71.30
2019-05-15T03:59:59.761Z,71.60
2019-05-15T04:02:29.079Z,71.80
2019-05-15T04:05:01.692Z,71.90
2019-05-15T04:07:29.308Z,72.20
2019-05-15T04:09:58.878Z,72.30
2019-05-15T04:12:29.045Z,72.40
2019-05-15T04:14:59.601Z,71.60
2019-05-15T04:17:29.436Z,72.40
2019-05-15T04:19:58.985Z,72.30
2019-05-15T04:22:29.046Z,72.40
2019-05-15T04:24:59.405Z,72.60
2019-05-15T04:27:29.252Z,72.70
2019-05-15T04:29:59.225Z,72.70
2019-05-15T04:32:29.041Z,72.70
2019-05-15T04:34:59.426Z,72.80
2019-05-15T04:37:29.919Z,73.10
2019-05-15T04:39:59.895Z,73.00
2019-05-15T04:42:29.869Z,73.00
2019-05-15T04:44:59.724Z,73.10
2019-05-15T04:47:30.166Z,73.60
2019-05-15T04:49:59.510Z,73.80
2019-05-15T04:52:30.479Z,73.80
2019-05-15T04:54:59.796Z,74.00
2019-05-15T04:57:33.630Z,73.60
2019-05-15T04:59:59.535Z,73.90
2019-05-15T05:02:32.131Z,73.90
2019-05-15T05:04:59.037Z,74.20
2019-05-15T05:07:29.606Z,74.30
2019-05-15T05:09:59.522Z,74.30
2019-05-15T05:12:29.038Z,74.10
2019-05-15T05:14:58.731Z,74.20
2019-05-15T05:17:28.855Z,74.50
2019-05-15T05:19:58.334Z,74.40
2019-05-15T05:22:28.239Z,74.70
2019-05-15T05:24:58.492Z,74.60
2019-05-15T05:27:28.837Z,74.60
2019-05-15T05:29:58.702Z,74.70
2019-05-15T05:32:34.652Z,74.80
2019-05-15T05:34:58.935Z,74.80
2019-05-15T05:37:28.600Z,74.70
2019-05-15T05:39:57.762Z,74.70
2019-05-15T05:42:29.030Z,74.60
2019-05-15T05:44:58.230Z,74.60
2019-05-15T05:47:28.826Z,74.30
2019-05-15T05:49:58.238Z,75.10
2019-05-15T05:52:28.011Z,74.30
2019-05-15T05:54:58.106Z,74.10
2019-05-15T05:57:28.002Z,74.00
2019-05-15T05:59:58.274Z,74.10
2019-05-15T06:02:28.009Z,74.00
2019-05-15T06:04:58.274Z,73.90
2019-05-15T06:07:27.945Z,73.70
2019-05-15T06:09:58.109Z,73.50
2019-05-15T06:12:28.227Z,73.30
2019-05-15T06:14:58.050Z,73.10
2019-05-15T06:17:28.088Z,72.90
2019-05-15T06:19:58.614Z,72.80
2019-05-15T06:22:27.757Z,72.50
2019-05-15T06:24:57.921Z,72.20
2019-05-15T06:27:27.953Z,71.90
2019-05-15T06:29:58.913Z,72.10
2019-05-15T06:32:28.979Z,71.10
2019-05-15T06:34:57.968Z,70.50
2019-05-15T06:37:28.696Z,69.70
2019-05-15T06:39:58.842Z,69.50
2019-05-15T06:42:28.366Z,69.10
2019-05-15T06:44:58.884Z,68.60
2019-05-15T06:47:28.464Z,68.30
2019-05-15T06:49:57.970Z,67.80
2019-05-15T06:52:28.458Z,67.40
2019-05-15T06:54:59.306Z,67.00
2019-05-15T06:57:28.721Z,66.30
2019-05-15T06:59:57.993Z,66.40
2019-05-15T07:02:28.536Z,65.80
2019-05-15T07:04:58.334Z,65.30
2019-05-15T07:07:28.718Z,65.10
2019-05-15T07:09:58.306Z,64.50
2019-05-15T07:12:28.133Z,63.80
2019-05-15T07:14:58.210Z,63.10
2019-05-15T07:17:28.711Z,62.20
2019-05-15T07:19:59.309Z,61.30
2019-05-15T07:22:28.942Z,60.90
2019-05-15T07:24:58.289Z,60.30
2019-05-15T07:27:28.316Z,59.10
2019-05-15T07:29:58.362Z,59.00
2019-05-15T07:32:28.540Z,58.40
2019-05-15T07:34:57.843Z,58.60
2019-05-15T07:37:28.923Z,58.40
2019-05-15T07:39:59.118Z,57.90
2019-05-15T07:42:29.120Z,57.00
2019-05-15T07:44:58.877Z,56.50
2019-05-15T07:47:29.300Z,56.10
2019-05-15T07:49:59.055Z,55.60
2019-05-15T07:52:28.803Z,54.70
2019-05-15T07:54:58.366Z,53.80
2019-05-15T07:57:29.904Z,53.60
2019-05-15T07:59:58.757Z,53.30
2019-05-15T08:02:28.436Z,52.60
2019-05-15T08:04:57.677Z,53.00
2019-05-15T08:07:27.913Z,52.80
2019-05-15T08:09:59.032Z,52.30
2019-05-15T08:12:28.306Z,52.00
2019-05-15T08:14:58.320Z,51.80
2019-05-15T08:17:28.919Z,51.40
2019-05-15T08:19:58.325Z,51.50
2019-05-15T08:22:28.510Z,50.80
2019-05-15T08:24:59.138Z,50.30
2019-05-15T08:27:29.897Z,49.40
2019-05-15T08:29:58.711Z,48.70
2019-05-15T08:32:28.021Z,49.10
2019-05-15T08:34:58.659Z,48.80
2019-05-15T08:37:29.273Z,48.00
2019-05-15T08:39:59.728Z,47.70
2019-05-15T08:42:31.890Z,48.20
2019-05-15T08:44:59.109Z,48.20
2019-05-15T08:47:29.686Z,48.00
2019-05-15T08:49:58.773Z,47.30
2019-05-15T08:52:28.293Z,46.90
2019-05-15T08:54:59.020Z,47.20
2019-05-15T08:57:28.993Z,47.00
2019-05-15T08:59:58.369Z,47.30
2019-05-15T09:02:28.711Z,46.50
2019-05-15T09:04:58.114Z,46.20
2019-05-15T09:07:28.736Z,45.40
2019-05-15T09:09:58.097Z,45.00
2019-05-15T09:12:29.359Z,45.30
2019-05-15T09:14:58.192Z,44.60
2019-05-15T09:17:28.606Z,44.60
2019-05-15T09:19:58.803Z,44.20
2019-05-15T09:22:29.153Z,44.20
2019-05-15T09:24:58.972Z,44.20
2019-05-15T09:27:27.987Z,43.90
2019-05-15T09:29:59.010Z,43.50
2019-05-15T09:32:28.466Z,42.30
2019-05-15T09:34:59.324Z,41.60
2019-05-15T09:37:28.685Z,41.90
2019-05-15T09:39:58.421Z,41.60
2019-05-15T09:42:28.623Z,40.90
2019-05-15T09:44:58.207Z,40.80
2019-05-15T09:47:29.668Z,40.60
2019-05-15T09:49:58.917Z,40.00
2019-05-15T09:52:29.854Z,39.90
2019-05-15T09:54:59.280Z,38.60
2019-05-15T09:57:30.261Z,37.40
2019-05-15T09:59:58.960Z,36.60
2019-05-15T10:02:28.364Z,35.50
2019-05-15T10:05:05.991Z,35.80
2019-05-15T10:07:28.546Z,36.00
2019-05-15T10:09:57.604Z,35.50
2019-05-15T10:12:33.897Z,34.70
2019-05-15T10:14:59.203Z,34.70
2019-05-15T10:17:29.145Z,34.60
2019-05-15T10:19:58.399Z,34.90
2019-05-15T10:22:28.260Z,34.90
2019-05-15T10:24:58.750Z,34.40
2019-05-15T10:27:28.699Z,33.40
2019-05-15T10:29:58.836Z,33.70
2019-05-15T10:32:28.968Z,33.60
2019-05-15T10:34:58.686Z,32.60
2019-05-15T10:37:28.498Z,32.60
2019-05-15T10:39:58.424Z,32.20
2019-05-15T10:42:29.017Z,32.20
2019-05-15T10:44:58.844Z,31.90
2019-05-15T10:47:28.881Z,32.00
2019-05-15T10:50:00.126Z,32.00
2019-05-15T10:52:28.943Z,31.30
2019-05-15T10:54:58.403Z,31.10
2019-05-15T10:57:28.514Z,31.70
2019-05-15T10:59:58.437Z,32.00
2019-05-15T11:02:29.014Z,31.60
2019-05-15T11:04:58.178Z,30.80
2019-05-15T11:07:28.442Z,31.20
2019-05-15T11:09:58.187Z,31.50
2019-05-15T11:12:29.221Z,30.70
2019-05-15T11:14:57.816Z,30.70
2019-05-15T11:17:28.734Z,31.10
2019-05-15T11:19:58.618Z,31.70
2019-05-15T11:22:29.802Z,31.90
2019-05-15T11:24:59.458Z,31.80
2019-05-15T11:27:31.471Z,32.10
2019-05-15T11:29:59.029Z,32.40
2019-05-15T11:32:29.371Z,32.70
2019-05-15T11:34:58.524Z,32.80
2019-05-15T11:37:28.299Z,32.80
2019-05-15T11:39:58.989Z,33.00
2019-05-15T11:42:28.817Z,33.20
2019-05-15T11:44:58.447Z,33.10
2019-05-15T11:47:27.916Z,32.30
2019-05-15T11:49:58.471Z,32.00
2019-05-15T11:52:29.389Z,32.10
2019-05-15T11:54:58.931Z,31.70
2019-05-15T11:57:39.537Z,31.60
2019-05-15T11:59:59.657Z,32.10
2019-05-15T12:02:29.422Z,32.00
2019-05-15T12:04:58.551Z,31.30
2019-05-15T12:07:28.992Z,31.70
2019-05-15T12:09:58.197Z,31.70
2019-05-15T12:12:31.795Z,31.40
2019-05-15T12:14:57.608Z,31.70
2019-05-15T12:17:28.416Z,31.30
2019-05-15T12:20:05.287Z,31.40
2019-05-15T12:22:28.953Z,31.40
2019-05-15T12:25:00.599Z,31.10
2019-05-15T12:27:28.522Z,30.60
2019-05-15T12:29:59.910Z,30.50
2019-05-15T12:32:35.818Z,30.00
2019-05-15T12:35:00.040Z,30.30
2019-05-15T12:37:29.198Z,30.20
2019-05-15T13:00:02.508Z,31.00
2019-05-15T13:02:31.341Z,30.90
2019-05-15T13:05:00.248Z,31.80
2019-05-15T13:07:29.129Z,31.80
2019-05-15T13:09:58.077Z,31.40
2019-05-15T13:12:28.759Z,31.20
2019-05-15T13:14:59.106Z,31.10
2019-05-15T13:17:29.155Z,30.80
2019-05-15T13:19:58.708Z,30.70
2019-05-15T13:22:28.157Z,30.40
2019-05-15T13:24:58.857Z,29.90
2019-05-15T13:27:27.873Z,29.80
2019-05-15T13:29:58.283Z,29.50
2019-05-15T13:32:28.457Z,29.80
2019-05-15T13:34:59.422Z,29.80
2019-05-15T13:37:30.782Z,29.90
2019-05-15T13:39:58.813Z,29.80
2019-05-15T13:42:28.112Z,30.00
2019-05-15T13:44:58.686Z,29.60
2019-05-15T13:47:28.178Z,29.30
2019-05-15T13:49:58.611Z,29.20
2019-05-15T13:52:28.281Z,29.50
2019-05-15T13:54:57.361Z,29.90
2019-05-15T13:57:29.372Z,29.70
2019-05-15T13:59:58.904Z,29.50
2019-05-15T14:02:28.096Z,29.20
2019-05-15T14:04:58.291Z,29.30
2019-05-15T14:07:33.042Z,29.30
2019-05-15T14:09:59.940Z,29.60
2019-05-15T14:12:28.459Z,29.70
2019-05-15T14:14:58.119Z,29.30
2019-05-15T14:17:28.308Z,29.50
2019-05-15T14:19:58.022Z,29.80
2019-05-15T14:22:27.031Z,29.40
2019-05-15T14:24:58.292Z,28.70
2019-05-15T14:27:28.977Z,28.20
2019-05-15T14:29:58.191Z,28.50
2019-05-15T14:32:53.625Z,29.10
2019-05-15T14:34:58.496Z,29.70
2019-05-15T14:37:28.651Z,30.00
2019-05-15T14:39:58.021Z,30.10
2019-05-15T14:42:29.330Z,30.10
2019-05-15T14:44:59.257Z,30.60
2019-05-15T14:47:29.590Z,30.50
2019-05-15T14:49:58.673Z,31.00
2019-05-15T14:52:28.029Z,30.70
2019-05-15T14:54:59.068Z,30.00
2019-05-15T14:57:27.637Z,29.80
2019-05-15T14:59:58.015Z,29.60
2019-05-15T15:02:27.009Z,29.50
2019-05-15T15:04:55.845Z,29.10
2019-05-15T15:07:25.008Z,29.60
2019-05-15T15:09:53.885Z,29.70
2019-05-15T15:12:22.961Z,29.20
2019-05-15T15:14:51.954Z,29.20
2019-05-15T15:17:20.793Z,28.90
2019-05-15T15:19:51.371Z,28.70
2019-05-15T15:22:20.252Z,29.00
2019-05-15T15:24:49.132Z,29.10
2019-05-15T15:27:18.246Z,29.30
2019-05-15T15:29:48.277Z,29.30
2019-05-15T15:32:28.379Z,29.40
2019-05-15T15:34:58.720Z,29.90
2019-05-15T15:37:28.739Z,30.80
2019-05-15T15:39:58.821Z,30.40
2019-05-15T15:42:28.527Z,30.00
2019-05-15T15:44:58.123Z,30.00
2019-05-15T15:47:28.147Z,30.00
2019-05-15T15:49:58.500Z,29.90
2019-05-15T15:52:28.962Z,29.40
2019-05-15T15:54:58.093Z,29.00
2019-05-15T15:57:28.541Z,29.00
2019-05-15T15:59:57.579Z,29.40
2019-05-15T16:02:28.121Z,29.00
2019-05-15T16:04:58.902Z,28.90
2019-05-15T16:07:28.295Z,28.90
2019-05-15T16:09:58.915Z,29.00
2019-05-15T16:12:27.906Z,29.00
2019-05-15T16:14:57.941Z,29.50
2019-05-15T16:17:28.653Z,29.10
2019-05-15T16:19:57.630Z,28.80
2019-05-15T16:22:28.362Z,29.20
2019-05-15T16:24:58.763Z,29.50
2019-05-15T16:27:28.740Z,30.00
2019-05-15T16:29:58.497Z,30.40
2019-05-15T16:32:28.898Z,30.80
2019-05-15T16:34:58.662Z,30.90
2019-05-15T16:37:28.136Z,30.60
2019-05-15T16:39:59.889Z,30.80
2019-05-15T16:42:28.652Z,30.80
2019-05-15T16:44:58.430Z,30.80
2019-05-15T16:47:27.953Z,30.60
2019-05-15T16:49:57.997Z,30.10
2019-05-15T16:52:30.739Z,29.80
2019-05-15T16:54:58.133Z,29.70
2019-05-15T16:57:28.419Z,29.50
2019-05-15T16:59:58.579Z,29.50
2019-05-15T17:02:28.236Z,29.60
2019-05-15T17:04:57.362Z,29.30
2019-05-15T17:07:28.738Z,28.80
2019-05-15T17:09:58.597Z,29.10
2019-05-15T17:12:27.914Z,28.80
2019-05-15T17:14:58.378Z,28.60
2019-05-15T17:17:27.466Z,28.70
2019-05-15T17:19:57.966Z,28.80
2019-05-15T17:22:28.839Z,29.10
2019-05-15T17:24:58.279Z,29.40
2019-05-15T17:27:28.896Z,29.90
2019-05-15T17:29:58.474Z,30.70
2019-05-15T17:32:29.059Z,30.90
2019-05-15T17:34:58.829Z,31.40
2019-05-15T17:37:28.687Z,31.90
2019-05-15T17:39:58.913Z,32.10
2019-05-15T17:42:28.962Z,32.60
2019-05-15T17:44:58.118Z,32.60
2019-05-15T17:47:28.582Z,33.00
2019-05-15T17:49:58.822Z,33.30
2019-05-15T17:52:28.948Z,33.30
2019-05-15T17:54:59.286Z,33.70
2019-05-15T17:57:28.683Z,33.70
2019-05-15T17:59:59.033Z,33.90
2019-05-15T18:02:28.726Z,33.90
2019-05-15T18:04:58.759Z,33.80
2019-05-15T18:07:28.231Z,34.10
2019-05-15T18:09:59.105Z,34.40
2019-05-15T18:12:29.185Z,34.50
2019-05-15T18:14:58.417Z,34.70
2019-05-15T18:17:27.322Z,35.20
2019-05-15T18:19:58.089Z,35.30
2019-05-15T18:22:27.549Z,35.50
2019-05-15T18:24:58.066Z,35.90
2019-05-15T18:27:27.067Z,36.30
2019-05-15T18:29:57.911Z,36.70
2019-05-15T18:32:28.512Z,37.10
2019-05-15T18:34:58.730Z,37.40
2019-05-15T18:37:28.250Z,37.50
2019-05-15T18:40:05.363Z,37.80
2019-05-15T18:42:29.272Z,38.50
2019-05-15T18:44:58.456Z,38.90
2019-05-15T18:47:27.986Z,39.00
2019-05-15T18:50:05.279Z,39.10
2019-05-15T18:52:28.757Z,39.40
2019-05-15T18:54:58.744Z,39.60
2019-05-15T18:57:27.858Z,39.70
2019-05-15T18:59:58.008Z,39.80
2019-05-15T19:02:28.085Z,40.10
2019-05-15T19:04:58.711Z,40.50
2019-05-15T19:07:28.630Z,40.90
2019-05-15T19:09:57.685Z,40.80
2019-05-15T19:12:28.272Z,41.70
2019-05-15T19:14:59.014Z,42.10
2019-05-15T19:17:30.334Z,42.30
2019-05-15T19:19:59.943Z,42.60
2019-05-15T19:22:28.941Z,42.90
2019-05-15T19:24:58.367Z,43.30
2019-05-15T19:27:28.146Z,43.70
2019-05-15T19:29:59.063Z,43.80
2019-05-15T19:32:27.944Z,44.00
2019-05-15T19:34:58.713Z,44.20
2019-05-15T19:37:28.735Z,44.50
2019-05-15T19:39:58.461Z,44.90
2019-05-15T19:42:28.676Z,45.10
2019-05-15T19:44:58.979Z,45.20
2019-05-15T19:47:28.133Z,45.60
2019-05-15T19:49:57.984Z,45.60
2019-05-15T19:52:28.371Z,46.30
2019-05-15T19:54:57.859Z,46.60
2019-05-15T19:57:28.061Z,46.90
2019-05-15T19:59:58.226Z,47.20
2019-05-15T20:02:28.579Z,47.60
2019-05-15T20:04:58.326Z,47.80
2019-05-15T20:07:28.687Z,48.00
2019-05-15T20:09:58.410Z,48.30
2019-05-15T20:12:28.024Z,48.60
2019-05-15T20:14:58.388Z,48.90
2019-05-15T20:17:27.728Z,49.10
2019-05-15T20:19:58.088Z,49.90
2019-05-15T20:22:28.334Z,49.50
2019-05-15T20:24:58.794Z,49.70
2019-05-15T20:27:28.322Z,49.90
2019-05-15T20:29:57.314Z,49.90
2019-05-15T20:32:27.851Z,50.30
2019-05-15T20:34:57.801Z,50.50
2019-05-15T20:37:28.940Z,50.70
2019-05-15T20:39:58.292Z,50.90
2019-05-15T20:42:27.630Z,51.10
2019-05-15T20:44:57.857Z,51.30
2019-05-15T20:47:28.089Z,51.50
2019-05-15T20:49:57.189Z,51.70
2019-05-15T20:52:28.315Z,52.00
2019-05-15T20:54:59.358Z,52.20
2019-05-15T20:57:28.341Z,52.40
2019-05-15T20:59:58.703Z,52.50
2019-05-15T21:02:28.982Z,52.80
2019-05-15T21:04:58.294Z,53.00
2019-05-15T21:07:38.650Z,53.30
2019-05-15T21:09:59.224Z,53.50
2019-05-15T21:12:29.839Z,54.10
2019-05-15T21:14:58.693Z,53.90
2019-05-15T21:17:28.294Z,54.00
2019-05-15T21:19:58.372Z,54.30
2019-05-15T21:22:28.340Z,54.40
2019-05-15T21:24:57.480Z,54.70
2019-05-15T21:27:31.889Z,54.90
2019-05-15T21:29:59.180Z,55.20
2019-05-15T21:32:28.485Z,55.20
2019-05-15T21:34:58.391Z,55.50
2019-05-15T21:37:30.263Z,55.60
2019-05-15T21:39:58.961Z,55.80
2019-05-15T21:42:28.037Z,56.00
2019-05-15T21:44:58.205Z,56.00
2019-05-15T21:47:28.076Z,56.20
2019-05-15T21:49:57.101Z,56.40
2019-05-15T21:52:26.068Z,56.50
2019-05-15T21:54:54.967Z,56.80
2019-05-15T21:57:33.019Z,56.90
2019-05-15T21:59:54.470Z,57.00
2019-05-15T22:02:23.414Z,57.20
2019-05-15T22:04:55.919Z,57.30
2019-05-15T22:07:23.511Z,57.40
2019-05-15T22:09:52.801Z,57.60
2019-05-15T22:12:21.687Z,57.80
2019-05-15T22:14:50.619Z,57.80
2019-05-15T22:17:19.534Z,58.40
2019-05-15T22:19:49.123Z,58.20
2019-05-15T22:22:18.197Z,58.20
2019-05-15T22:24:48.350Z,58.40
2019-05-15T22:27:18.028Z,58.60
2019-05-15T22:29:48.190Z,58.70
2019-05-15T22:32:18.611Z,58.70
2019-05-15T22:34:48.135Z,58.70
2019-05-15T22:37:18.235Z,58.90
2019-05-15T22:39:50.168Z,59.10
2019-05-15T22:42:19.058Z,59.30
2019-05-15T22:44:48.014Z,59.40
2019-05-15T22:47:19.607Z,59.50
2019-05-15T22:49:50.572Z,59.70
2019-05-15T22:52:19.914Z,60.00
2019-05-15T22:54:48.735Z,60.00
2019-05-15T22:57:17.624Z,59.90
2019-05-15T22:59:48.653Z,60.00
2019-05-15T23:02:17.989Z,60.20
2019-05-15T23:04:47.048Z,60.40
2019-05-15T23:07:16.007Z,60.80
2019-05-15T23:09:45.035Z,61.00
2019-05-15T23:12:13.880Z,61.40
2019-05-15T23:14:42.838Z,60.90
2019-05-15T23:17:11.767Z,61.30
2019-05-15T23:19:40.620Z,61.50
2019-05-15T23:22:09.619Z,61.70
2019-05-15T23:24:38.793Z,61.90
2019-05-15T23:27:08.932Z,62.00
2019-05-15T23:29:38.477Z,62.30
2019-05-15T23:32:07.952Z,62.30
2019-05-15T23:34:38.593Z,62.50
2019-05-15T23:37:08.277Z,62.20
2019-05-15T23:39:38.027Z,62.40
2019-05-15T23:42:08.896Z,62.60
2019-05-15T23:44:38.257Z,62.70
2019-05-15T23:47:07.219Z,62.20
2019-05-15T23:49:38.068Z,62.80
2019-05-15T23:52:08.761Z,63.00
2019-05-15T23:54:38.499Z,63.00
2019-05-15T23:57:08.913Z,62.90
2019-05-15T23:59:38.496Z,63.20
